createdAt,value
2022-09-07T00:00:47.080Z,12.5
2022-09-07T00:03:17.819Z,12.5
2022-09-07T00:05:48.710Z,12.7
2022-09-07T00:10:49.427Z,12.6
2022-09-07T00:13:30.064Z,12.6
2022-09-07T00:16:00.701Z,12.5
2022-09-07T00:18:31.594Z,12.5
2022-09-07T00:20:56.366Z,12.4
2022-09-07T00:23:26.991Z,12.4
2022-09-07T00:25:57.569Z,12.7
2022-09-07T00:28:38.182Z,12.7
2022-09-07T00:31:08.784Z,12.7
2022-09-07T00:33:39.601Z,12.7
2022-09-07T00:36:10.193Z,12.6
2022-09-07T00:38:40.842Z,12.6
2022-09-07T00:41:11.424Z,12.7
2022-09-07T00:43:52.061Z,12.7
2022-09-07T00:46:22.760Z,12.8
2022-09-07T00:51:23.760Z,13.0
2022-09-07T00:54:04.307Z,12.9
2022-09-07T00:56:34.894Z,12.8
2022-09-07T00:59:15.527Z,12.4
2022-09-07T01:01:46.293Z,12.3
2022-09-07T01:04:17.294Z,12.3
2022-09-07T01:06:47.976Z,12.2
2022-09-07T01:09:18.577Z,12.1
2022-09-07T01:11:49.192Z,12.2
2022-09-07T01:14:29.810Z,12.2
2022-09-07T01:17:00.410Z,12.1
2022-09-07T01:19:30.989Z,12.1
2022-09-07T01:22:01.564Z,12.1
2022-09-07T01:24:32.178Z,12.2
2022-09-07T01:27:02.765Z,12.2
2022-09-07T01:32:13.509Z,12.4
2022-09-07T01:34:44.097Z,12.0
2022-09-07T01:37:14.704Z,12.0
2022-09-07T01:39:45.379Z,12.0
2022-09-07T01:42:26.145Z,12.0
2022-09-07T01:44:56.739Z,12.0
2022-09-07T01:47:27.313Z,12.0
2022-09-07T01:49:57.919Z,12.0
2022-09-07T01:52:28.527Z,12.0
2022-09-07T01:54:59.165Z,12.2
2022-09-07T01:57:39.758Z,12.3
2022-09-07T02:00:10.391Z,12.4
2022-09-07T02:02:41.054Z,12.5
2022-09-07T02:05:11.902Z,12.6
2022-09-07T02:07:42.470Z,12.7
2022-09-07T02:12:53.219Z,12.6
2022-09-07T02:15:23.832Z,12.3
2022-09-07T02:17:54.707Z,12.2
2022-09-07T02:20:25.255Z,12.2
2022-09-07T02:22:55.857Z,12.2
2022-09-07T02:25:36.482Z,12.2
2022-09-07T02:28:07.097Z,12.2
2022-09-07T02:30:37.812Z,12.2
2022-09-07T02:33:08.527Z,12.2
2022-09-07T02:35:39.135Z,12.2
2022-09-07T02:38:09.722Z,12.2
2022-09-07T02:40:50.431Z,12.2
2022-09-07T02:43:21.007Z,12.2
2022-09-07T02:45:51.614Z,12.2
2022-09-07T02:48:22.418Z,12.4
2022-09-07T02:53:23.183Z,12.7
2022-09-07T02:56:03.762Z,12.8
2022-09-07T02:58:34.378Z,12.9
2022-09-07T03:01:05.018Z,13.0
2022-09-07T03:03:35.810Z,13.0
2022-09-07T03:06:06.419Z,13.2
2022-09-07T03:08:37.037Z,13.2
2022-09-07T03:11:17.635Z,13.3
2022-09-07T03:13:48.246Z,13.3
2022-09-07T03:16:18.881Z,13.3
2022-09-07T03:18:49.506Z,13.3
2022-09-07T03:21:20.086Z,13.4
2022-09-07T03:24:00.681Z,13.3
2022-09-07T03:26:31.295Z,13.2
2022-09-07T03:29:01.934Z,13.1
2022-09-07T03:34:02.640Z,13.0
2022-09-07T03:36:33.221Z,13.0
2022-09-07T03:39:23.939Z,13.1
2022-09-07T03:41:44.742Z,13.1
2022-09-07T03:44:25.343Z,13.0
2022-09-07T03:46:55.937Z,13.0
2022-09-07T03:49:26.567Z,12.9
2022-09-07T03:51:57.168Z,12.9
2022-09-07T03:54:39.407Z,12.9
2022-09-07T03:57:00.222Z,13.0
2022-09-07T03:59:30.801Z,13.2
2022-09-07T04:02:01.461Z,13.4
2022-09-07T04:04:32.194Z,13.4
2022-09-07T04:07:02.769Z,13.0
2022-09-07T04:09:43.363Z,12.8
2022-09-07T04:14:54.118Z,12.9
2022-09-07T04:17:24.723Z,12.8
2022-09-07T04:19:55.310Z,12.6
2022-09-07T04:22:35.914Z,12.6
2022-09-07T04:25:06.494Z,12.6
2022-09-07T04:27:37.084Z,12.6
2022-09-07T04:30:07.675Z,12.7
2022-09-07T04:32:38.410Z,12.8
2022-09-07T04:35:09.032Z,12.8
2022-09-07T04:37:49.621Z,12.7
2022-09-07T04:40:20.254Z,12.8
2022-09-07T04:42:50.826Z,12.9
2022-09-07T04:45:21.419Z,13.0
2022-09-07T04:47:52.070Z,13.2
2022-09-07T04:50:22.659Z,13.2
2022-09-07T04:55:33.447Z,13.1
2022-09-07T04:58:04.044Z,12.9
2022-09-07T05:00:34.762Z,12.8
2022-09-07T05:05:35.602Z,12.8
2022-09-07T05:08:16.184Z,12.7
2022-09-07T05:10:46.938Z,12.7
2022-09-07T05:13:17.528Z,12.8
2022-09-07T05:15:48.129Z,13.0
2022-09-07T05:18:18.879Z,13.1
2022-09-07T05:20:59.626Z,13.2
2022-09-07T05:23:30.229Z,13.3
2022-09-07T05:26:00.821Z,13.4
2022-09-07T05:28:31.637Z,13.6
2022-09-07T05:31:18.253Z,13.6
2022-09-07T05:36:09.818Z,13.7
2022-09-07T05:38:40.433Z,13.9
2022-09-07T05:41:11.030Z,14.0
2022-09-07T05:46:21.277Z,14.0
2022-09-07T05:48:51.947Z,14.1
2022-09-07T05:51:32.538Z,14.1
2022-09-07T05:54:03.139Z,14.2
2022-09-07T05:56:33.724Z,14.2
2022-09-07T05:59:04.320Z,14.3
2022-09-07T06:01:34.927Z,14.4
2022-09-07T06:04:05.676Z,14.4
2022-09-07T06:06:59.195Z,14.5
2022-09-07T06:09:12.594Z,14.8
2022-09-07T06:11:40.788Z,15.2
2022-09-07T06:16:41.561Z,15.8
2022-09-07T06:19:22.340Z,16.2
2022-09-07T06:22:02.920Z,16.6
2022-09-07T06:24:25.343Z,16.7
2022-09-07T06:26:55.951Z,16.6
2022-09-07T06:29:26.535Z,16.6
2022-09-07T06:34:45.561Z,16.8
2022-09-07T06:37:16.169Z,17.0
2022-09-07T06:39:46.830Z,17.0
2022-09-07T06:42:17.749Z,17.3
2022-09-07T06:44:48.323Z,17.4
2022-09-07T06:47:18.894Z,17.6
2022-09-07T06:49:59.523Z,17.6
2022-09-07T06:57:26.167Z,17.6
2022-09-07T06:59:56.763Z,17.4
2022-09-07T07:02:27.358Z,17.3
2022-09-07T07:05:08.036Z,17.1
2022-09-07T07:07:38.625Z,16.9
2022-09-07T07:10:09.224Z,16.8
2022-09-07T07:12:44.981Z,16.8
2022-09-07T07:15:15.596Z,16.7
2022-09-07T07:18:00.567Z,16.6
2022-09-07T07:20:21.895Z,16.6
2022-09-07T07:22:52.498Z,16.5
2022-09-07T07:25:23.116Z,16.4
2022-09-07T07:27:53.728Z,16.6
2022-09-07T07:30:29.573Z,16.5
2022-09-07T07:33:10.232Z,16.6
2022-09-07T07:40:42.092Z,16.8
2022-09-07T07:43:13.668Z,16.7
2022-09-07T07:45:56.710Z,16.7
2022-09-07T07:48:27.587Z,16.8
2022-09-07T07:50:58.198Z,16.7
2022-09-07T07:53:42.699Z,16.8
2022-09-07T07:55:53.460Z,16.8
2022-09-07T07:58:24.031Z,16.8
2022-09-07T08:00:55.734Z,16.8
2022-09-07T08:03:36.684Z,16.8
2022-09-07T08:06:07.258Z,16.8
2022-09-07T08:08:37.845Z,16.8
2022-09-07T08:11:08.430Z,16.9
2022-09-07T08:13:39.027Z,17.0
2022-09-07T08:18:49.760Z,17.3
2022-09-07T08:21:20.348Z,17.4
2022-09-07T08:23:50.929Z,17.5
2022-09-07T08:26:21.540Z,17.4
2022-09-07T08:28:52.161Z,17.6
2022-09-07T08:31:32.788Z,17.7
2022-09-07T08:34:03.631Z,17.9
2022-09-07T08:36:34.241Z,18.0
2022-09-07T08:39:04.847Z,18.1
2022-09-07T08:41:35.430Z,18.3
2022-09-07T08:44:05.992Z,18.4
2022-09-07T08:46:46.592Z,18.5
2022-09-07T08:49:17.416Z,18.7
2022-09-07T08:54:28.164Z,18.9
2022-09-07T08:59:38.901Z,19.2
2022-09-07T09:02:36.840Z,19.5
2022-09-07T09:07:02.492Z,19.6
2022-09-07T09:09:33.404Z,19.6
2022-09-07T09:12:03.982Z,19.9
2022-09-07T09:14:44.605Z,19.9
2022-09-07T09:17:25.201Z,20.2
2022-09-07T09:19:55.798Z,20.0
2022-09-07T09:22:26.356Z,20.0
2022-09-07T09:24:56.985Z,20.0
2022-09-07T09:27:27.570Z,20.2
2022-09-07T09:30:08.179Z,20.2
2022-09-07T09:32:38.756Z,20.4
2022-09-07T09:40:09.635Z,20.7
2022-09-07T09:42:40.479Z,20.9
2022-09-07T09:45:21.196Z,21.3
2022-09-07T09:47:52.777Z,21.4
2022-09-07T09:52:54.085Z,21.8
2022-09-07T09:55:34.204Z,21.8
2022-09-07T10:00:36.370Z,22.0
2022-09-07T10:05:39.430Z,22.7
2022-09-07T10:08:10.013Z,22.8
2022-09-07T10:10:40.659Z,22.7
2022-09-07T10:13:21.265Z,22.8
2022-09-07T10:15:51.864Z,22.4
2022-09-07T10:20:52.763Z,21.9
2022-09-07T10:23:23.362Z,21.9
2022-09-07T10:25:53.993Z,22.0
2022-09-07T10:31:05.770Z,22.1
2022-09-07T10:33:36.595Z,22.1
2022-09-07T10:36:06.323Z,22.3
2022-09-07T10:38:36.930Z,22.4
2022-09-07T10:41:07.531Z,22.5
2022-09-07T10:43:48.096Z,22.6
2022-09-07T10:48:50.417Z,23.0
2022-09-07T10:51:20.999Z,23.0
2022-09-07T10:54:29.843Z,23.2
2022-09-07T10:56:30.923Z,23.2
2022-09-07T11:01:31.715Z,23.3
2022-09-07T11:04:02.594Z,23.2
2022-09-07T11:06:33.258Z,23.3
2022-09-07T11:09:18.215Z,23.5
2022-09-07T11:12:02.975Z,23.5
2022-09-07T11:14:18.206Z,23.3
2022-09-07T11:16:50.667Z,23.5
2022-09-07T11:19:37.394Z,23.6
2022-09-07T11:21:57.354Z,23.8
2022-09-07T11:24:18.018Z,23.8
2022-09-07T11:26:58.594Z,23.8
2022-09-07T11:29:29.615Z,24.0
2022-09-07T11:32:00.343Z,24.0
2022-09-07T11:34:30.958Z,24.2
2022-09-07T11:37:02.570Z,24.1
2022-09-07T11:42:43.107Z,24.3
2022-09-07T11:44:43.933Z,24.5
2022-09-07T11:47:14.516Z,24.4
2022-09-07T11:49:49.390Z,24.5
2022-09-07T11:52:12.038Z,24.8
2022-09-07T11:55:02.686Z,24.9
2022-09-07T11:57:33.277Z,24.8
2022-09-07T11:59:56.085Z,24.7
2022-09-07T12:02:42.284Z,24.6
2022-09-07T12:05:00.166Z,24.5
2022-09-07T12:07:30.810Z,24.7
2022-09-07T12:10:11.414Z,24.9
2022-09-07T12:12:41.990Z,24.9
2022-09-07T12:15:12.586Z,24.7
2022-09-07T12:17:43.253Z,24.5
2022-09-07T12:22:44.004Z,24.4
2022-09-07T12:25:25.759Z,24.4
2022-09-07T12:27:56.381Z,24.6
2022-09-07T12:30:32.122Z,24.9
2022-09-07T12:33:03.002Z,25.0
2022-09-07T12:35:33.645Z,25.1
2022-09-07T12:38:04.233Z,25.0
2022-09-07T12:40:44.870Z,25.3
2022-09-07T12:43:15.455Z,25.2
2022-09-07T12:45:37.995Z,25.2
2022-09-07T12:48:18.701Z,25.6
2022-09-07T12:50:40.273Z,25.7
2022-09-07T12:53:21.549Z,25.7
2022-09-07T12:56:16.667Z,25.9
2022-09-07T12:58:27.513Z,26.0
2022-09-07T13:03:51.284Z,26.3
2022-09-07T13:06:03.074Z,26.7
2022-09-07T13:08:43.629Z,26.6
2022-09-07T13:11:14.193Z,26.3
2022-09-07T13:14:05.267Z,26.1
2022-09-07T13:16:07.284Z,25.8
2022-09-07T13:18:38.787Z,25.6
2022-09-07T13:21:09.362Z,25.9
2022-09-07T13:23:49.959Z,26.1
2022-09-07T13:26:20.921Z,26.0
2022-09-07T13:28:51.520Z,26.0
2022-09-07T13:31:22.325Z,25.8
2022-09-07T13:33:52.913Z,25.9
2022-09-07T13:36:23.475Z,25.8
2022-09-07T13:39:04.093Z,25.8
2022-09-07T13:44:14.842Z,25.5
2022-09-07T13:46:37.105Z,25.5
2022-09-07T13:49:07.684Z,25.4
2022-09-07T13:51:48.279Z,25.4
2022-09-07T13:54:18.903Z,25.3
2022-09-07T13:56:49.491Z,25.3
2022-09-07T13:59:30.077Z,25.3
2022-09-07T14:02:00.705Z,25.7
2022-09-07T14:04:31.531Z,26.4
2022-09-07T14:07:12.134Z,26.6
2022-09-07T14:09:42.716Z,26.6
2022-09-07T14:12:13.306Z,27.0
2022-09-07T14:14:43.902Z,27.3
2022-09-07T14:17:09.172Z,27.7
2022-09-07T14:19:39.775Z,27.8
2022-09-07T14:24:50.503Z,28.4
2022-09-07T14:27:21.099Z,28.1
2022-09-07T14:29:51.700Z,28.1
2022-09-07T14:32:22.299Z,27.7
2022-09-07T14:34:52.868Z,27.5
2022-09-07T14:37:33.442Z,27.7
2022-09-07T14:40:04.076Z,27.4
2022-09-07T14:42:34.780Z,27.8
2022-09-07T14:45:05.507Z,28.3
2022-09-07T14:47:38.735Z,28.4
2022-09-07T14:50:10.651Z,27.5
2022-09-07T14:55:25.652Z,27.0
2022-09-07T14:57:56.238Z,27.1
2022-09-07T15:00:28.716Z,27.5
2022-09-07T15:05:37.846Z,27.9
2022-09-07T15:08:01.622Z,27.8
2022-09-07T15:10:32.238Z,27.4
2022-09-07T15:13:02.842Z,27.6
2022-09-07T15:15:43.460Z,27.5
2022-09-07T15:18:14.034Z,28.0
2022-09-07T15:20:54.635Z,27.6
2022-09-07T15:23:25.221Z,27.8
2022-09-07T15:25:55.771Z,27.7
2022-09-07T15:31:39.532Z,27.3
2022-09-07T15:33:27.068Z,27.4
2022-09-07T15:36:07.722Z,27.4
2022-09-07T15:39:00.410Z,27.7
2022-09-07T15:41:22.258Z,27.8
2022-09-07T15:46:05.518Z,27.4
2022-09-07T15:48:36.387Z,27.2
2022-09-07T15:54:12.133Z,26.5
2022-09-07T15:56:17.225Z,26.7
2022-09-07T15:58:50.099Z,26.9
2022-09-07T16:04:04.550Z,26.8
2022-09-07T16:06:35.931Z,27.0
2022-09-07T16:09:02.413Z,27.2
2022-09-07T16:11:35.121Z,27.2
2022-09-07T16:14:06.201Z,27.4
2022-09-07T16:19:20.904Z,27.1
2022-09-07T16:21:45.606Z,27.1
2022-09-07T16:26:48.749Z,26.2
2022-09-07T16:29:19.462Z,26.0
2022-09-07T16:34:36.263Z,25.7
2022-09-07T16:37:06.837Z,25.6
2022-09-07T16:39:37.468Z,25.4
2022-09-07T16:42:08.159Z,25.3
2022-09-07T16:44:34.592Z,25.2
2022-09-07T16:47:02.390Z,25.0
2022-09-07T16:49:43.004Z,24.8
2022-09-07T16:52:13.578Z,24.6
2022-09-07T16:54:44.831Z,24.4
2022-09-07T16:57:15.584Z,24.3
2022-09-07T16:59:46.383Z,24.1
2022-09-07T17:02:26.963Z,23.9
2022-09-07T17:07:27.773Z,23.6
2022-09-07T17:09:58.382Z,23.6
2022-09-07T17:12:29.018Z,23.4
2022-09-07T17:14:59.607Z,23.3
2022-09-07T17:17:40.213Z,23.2
2022-09-07T17:20:10.804Z,23.0
2022-09-07T17:22:51.377Z,22.9
2022-09-07T17:25:21.952Z,22.7
2022-09-07T17:27:44.005Z,22.5
2022-09-07T17:30:14.836Z,22.4
2022-09-07T17:32:55.487Z,22.2
2022-09-07T17:35:26.233Z,22.0
2022-09-07T17:37:58.217Z,21.8
2022-09-07T17:40:27.078Z,21.7
2022-09-07T17:48:18.699Z,21.2
2022-09-07T17:50:49.290Z,21.0
2022-09-07T17:53:19.911Z,20.8
2022-09-07T17:55:43.548Z,20.6
2022-09-07T17:58:14.123Z,20.4
2022-09-07T18:00:54.737Z,20.2
2022-09-07T18:03:26.782Z,20.0
2022-09-07T18:06:00.068Z,19.8
2022-09-07T18:08:31.330Z,19.7
2022-09-07T18:13:35.221Z,19.4
2022-09-07T18:16:16.712Z,19.3
2022-09-07T18:18:47.473Z,19.3
2022-09-07T18:21:10.156Z,19.2
2022-09-07T18:23:41.038Z,19.1
2022-09-07T18:29:04.490Z,18.9
2022-09-07T18:31:28.522Z,18.8
2022-09-07T18:34:01.407Z,18.7
2022-09-07T18:36:32.565Z,18.6
2022-09-07T18:38:55.531Z,18.5
2022-09-07T18:41:26.110Z,18.4
2022-09-07T18:43:56.701Z,18.3
2022-09-07T18:46:37.902Z,18.2
2022-09-07T18:49:08.571Z,18.1
2022-09-07T18:54:15.634Z,18.3
2022-09-07T18:56:46.214Z,18.3
2022-09-07T18:59:29.725Z,18.2
2022-09-07T19:02:04.626Z,18.1
2022-09-07T19:04:26.426Z,18.0
2022-09-07T19:09:29.856Z,17.9
2022-09-07T19:12:00.407Z,17.9
2022-09-07T19:14:41.013Z,17.8
2022-09-07T19:17:11.587Z,17.7
2022-09-07T19:19:42.172Z,17.6
2022-09-07T19:22:12.774Z,17.5
2022-09-07T19:24:43.349Z,17.4
2022-09-07T19:27:13.945Z,17.5
2022-09-07T19:29:54.557Z,17.5
2022-09-07T19:32:25.156Z,17.4
2022-09-07T19:34:55.758Z,17.3
2022-09-07T19:37:26.331Z,17.2
2022-09-07T19:39:57.034Z,17.1
2022-09-07T19:42:29.764Z,16.9
2022-09-07T19:45:10.364Z,16.9
2022-09-07T19:50:11.113Z,16.6
2022-09-07T19:52:41.703Z,16.5
2022-09-07T19:55:12.304Z,16.5
2022-09-07T19:57:52.905Z,16.4
2022-09-07T20:00:23.508Z,16.3
2022-09-07T20:02:54.240Z,16.2
2022-09-07T20:05:24.879Z,16.1
2022-09-07T20:07:55.454Z,16.2
2022-09-07T20:10:26.111Z,16.4
2022-09-07T20:13:06.698Z,16.4
2022-09-07T20:15:37.310Z,16.4
2022-09-07T20:18:07.980Z,16.4
2022-09-07T20:20:38.594Z,16.4
2022-09-07T20:25:39.342Z,16.4
2022-09-07T20:30:50.115Z,16.5
2022-09-07T20:33:22.780Z,16.6
2022-09-07T20:35:53.545Z,16.8
2022-09-07T20:38:24.131Z,16.9
2022-09-07T20:40:54.706Z,17.1
2022-09-07T20:43:35.329Z,17.3
2022-09-07T20:46:05.896Z,17.3
2022-09-07T20:48:36.556Z,17.3
2022-09-07T20:51:07.138Z,17.4
2022-09-07T20:53:41.318Z,17.4
2022-09-07T20:56:21.925Z,17.4
2022-09-07T20:58:52.513Z,17.4
2022-09-07T21:01:23.136Z,17.3
2022-09-07T21:03:53.933Z,16.9
2022-09-07T21:06:24.566Z,16.7
2022-09-07T21:11:35.298Z,16.6
2022-09-07T21:14:10.087Z,16.1
2022-09-07T21:16:40.762Z,15.6
2022-09-07T21:19:11.465Z,15.5
2022-09-07T21:21:42.238Z,15.3
2022-09-07T21:24:12.817Z,15.3
2022-09-07T21:26:53.434Z,15.4
2022-09-07T21:29:24.162Z,15.4
2022-09-07T21:31:54.833Z,15.5
2022-09-07T21:34:25.478Z,15.5
2022-09-07T21:36:56.041Z,15.6
2022-09-07T21:39:36.718Z,15.6
2022-09-07T21:42:07.478Z,15.7
2022-09-07T21:44:38.083Z,15.6
2022-09-07T21:47:08.671Z,15.5
2022-09-07T21:52:09.458Z,15.6
2022-09-07T21:54:50.027Z,15.7
2022-09-07T21:57:20.587Z,15.8
2022-09-07T21:59:51.175Z,15.9
2022-09-07T22:02:21.832Z,16.0
2022-09-07T22:04:52.506Z,15.9
2022-09-07T22:07:23.102Z,15.9
2022-09-07T22:10:03.721Z,16.0
2022-09-07T22:12:34.299Z,16.1
2022-09-07T22:15:04.884Z,16.2
2022-09-07T22:17:35.475Z,16.2
2022-09-07T22:20:06.940Z,16.0
2022-09-07T22:22:37.490Z,16.0
2022-09-07T22:25:18.082Z,16.0
2022-09-07T22:27:48.663Z,16.2
2022-09-07T22:32:49.407Z,17.1
2022-09-07T22:35:20.011Z,16.9
2022-09-07T22:38:00.609Z,16.8
2022-09-07T22:40:31.180Z,17.0
2022-09-07T22:43:01.790Z,17.2
2022-09-07T22:45:32.362Z,17.4
2022-09-07T22:48:02.964Z,17.4
2022-09-07T22:50:33.536Z,17.2
2022-09-07T22:53:14.251Z,17.1
2022-09-07T22:55:45.113Z,17.0
2022-09-07T22:58:15.706Z,16.9
2022-09-07T23:00:46.289Z,16.6
2022-09-07T23:03:16.975Z,16.6
2022-09-07T23:05:47.982Z,16.4
2022-09-07T23:08:28.596Z,16.3
2022-09-07T23:13:29.381Z,16.2
2022-09-07T23:15:59.996Z,16.0
2022-09-07T23:18:30.701Z,15.4
2022-09-07T23:21:01.326Z,15.8
2022-09-07T23:23:41.935Z,15.7
2022-09-07T23:26:12.524Z,15.6
2022-09-07T23:28:43.130Z,15.5
2022-09-07T23:31:13.748Z,15.4
2022-09-07T23:33:44.560Z,15.4
2022-09-07T23:36:15.140Z,15.2
2022-09-07T23:38:55.741Z,15.3
2022-09-07T23:41:26.340Z,15.3
2022-09-07T23:43:56.954Z,15.2
2022-09-07T23:46:27.625Z,15.1
2022-09-07T23:48:58.427Z,15.0
2022-09-07T23:54:19.187Z,14.6
2022-09-07T23:56:49.848Z,14.4
2022-09-07T23:59:20.440Z,14.1
